createdAt,value
2018-11-02T00:01:10.528Z,100.00
2018-11-02T00:03:39.180Z,100.00
2018-11-02T00:06:07.985Z,100.00
2018-11-02T00:08:36.743Z,100.00
2018-11-02T00:11:05.932Z,100.00
2018-11-02T00:13:34.662Z,100.00
2018-11-02T00:16:03.783Z,100.00
2018-11-02T00:18:32.635Z,100.00
2018-11-02T00:21:01.668Z,100.00
2018-11-02T00:23:30.512Z,100.00
2018-11-02T00:25:59.596Z,100.00
2018-11-02T00:28:28.299Z,100.00
2018-11-02T00:30:57.060Z,100.00
2018-11-02T00:33:25.871Z,100.00
2018-11-02T00:35:54.629Z,100.00
2018-11-02T00:38:23.989Z,100.00
2018-11-02T00:40:53.019Z,100.00
2018-11-02T00:43:21.967Z,100.00
2018-11-02T00:45:51.063Z,100.00
2018-11-02T00:48:19.865Z,100.00
2018-11-02T00:50:48.559Z,100.00
2018-11-02T00:53:17.436Z,100.00
2018-11-02T00:55:46.284Z,100.00
2018-11-02T00:58:15.102Z,100.00
2018-11-02T01:00:44.010Z,100.00
2018-11-02T01:03:13.295Z,100.00
2018-11-02T01:05:42.082Z,100.00
2018-11-02T01:08:10.781Z,100.00
2018-11-02T01:10:39.779Z,100.00
2018-11-02T01:13:08.669Z,100.00
2018-11-02T01:15:37.440Z,100.00
2018-11-02T01:18:06.543Z,100.00
2018-11-02T01:20:35.424Z,100.00
2018-11-02T01:23:04.597Z,100.00
2018-11-02T01:25:40.182Z,100.00
2018-11-02T01:28:09.084Z,100.00
2018-11-02T01:30:38.377Z,100.00
2018-11-02T01:33:06.987Z,100.00
2018-11-02T01:35:35.967Z,100.00
2018-11-02T01:38:04.837Z,100.00
2018-11-02T01:40:33.980Z,100.00
2018-11-02T01:43:03.145Z,100.00
2018-11-02T01:45:32.339Z,100.00
2018-11-02T01:48:01.078Z,100.00
2018-11-02T01:50:29.830Z,100.00
2018-11-02T01:52:58.434Z,100.00
2018-11-02T01:55:27.281Z,100.00
2018-11-02T01:57:56.150Z,100.00
2018-11-02T02:00:24.958Z,100.00
2018-11-02T02:02:53.748Z,100.00
2018-11-02T02:05:22.451Z,100.00
2018-11-02T02:07:51.109Z,100.00
2018-11-02T02:10:20.038Z,100.00
2018-11-02T02:12:48.848Z,100.00
2018-11-02T02:15:17.683Z,100.00
2018-11-02T02:17:46.579Z,100.00
2018-11-02T02:20:15.344Z,100.00
2018-11-02T02:22:44.347Z,100.00
2018-11-02T02:25:13.765Z,100.00
2018-11-02T02:27:42.469Z,100.00
2018-11-02T02:30:15.523Z,100.00
2018-11-02T02:32:44.154Z,100.00
2018-11-02T02:35:13.157Z,100.00
2018-11-02T02:37:41.874Z,100.00
2018-11-02T02:40:12.078Z,100.00
2018-11-02T02:42:41.490Z,100.00
2018-11-02T02:45:11.425Z,100.00
2018-11-02T02:47:41.012Z,100.00
2018-11-02T02:50:12.285Z,100.00
2018-11-02T02:52:41.235Z,100.00
2018-11-02T02:55:09.999Z,100.00
2018-11-02T02:57:39.224Z,100.00
2018-11-02T03:00:10.371Z,100.00
2018-11-02T03:02:39.192Z,100.00
2018-11-02T03:05:08.145Z,100.00
2018-11-02T03:07:36.766Z,100.00
2018-11-02T03:10:06.311Z,100.00
2018-11-02T03:12:34.896Z,100.00
2018-11-02T03:15:03.519Z,100.00
2018-11-02T03:17:32.534Z,100.00
2018-11-02T03:20:01.270Z,100.00
2018-11-02T03:22:30.203Z,100.00
2018-11-02T03:24:58.904Z,100.00
2018-11-02T03:27:27.965Z,100.00
2018-11-02T03:29:56.672Z,100.00
2018-11-02T03:32:25.704Z,100.00
2018-11-02T03:34:54.577Z,100.00
2018-11-02T03:37:23.375Z,100.00
2018-11-02T03:39:52.164Z,100.00
2018-11-02T03:42:20.855Z,100.00
2018-11-02T03:44:49.861Z,100.00
2018-11-02T03:47:18.614Z,100.00
2018-11-02T03:49:47.362Z,100.00
2018-11-02T03:52:16.287Z,100.00
2018-11-02T03:54:45.437Z,100.00
2018-11-02T03:57:14.271Z,100.00
2018-11-02T03:59:43.110Z,100.00
2018-11-02T04:02:12.066Z,100.00
2018-11-02T04:04:40.960Z,100.00
2018-11-02T04:07:09.867Z,100.00
2018-11-02T04:09:38.644Z,100.00
2018-11-02T04:12:07.619Z,100.00
2018-11-02T04:14:36.517Z,100.00
2018-11-02T04:17:05.834Z,100.00
2018-11-02T04:19:34.596Z,100.00
2018-11-02T04:22:03.594Z,100.00
2018-11-02T04:24:32.317Z,100.00
2018-11-02T04:27:01.179Z,100.00
2018-11-02T04:29:30.036Z,100.00
2018-11-02T04:31:59.160Z,100.00
2018-11-02T04:34:27.833Z,100.00
2018-11-02T04:36:56.664Z,100.00
2018-11-02T04:39:25.823Z,100.00
2018-11-02T04:41:54.618Z,100.00
2018-11-02T04:44:23.409Z,100.00
2018-11-02T04:46:52.193Z,100.00
2018-11-02T04:49:21.190Z,100.00
2018-11-02T04:51:50.406Z,100.00
2018-11-02T04:54:19.233Z,100.00
2018-11-02T04:56:47.984Z,100.00
2018-11-02T04:59:16.715Z,100.00
2018-11-02T05:04:41.021Z,100.00
2018-11-02T05:07:10.103Z,100.00
2018-11-02T05:09:39.012Z,100.00
2018-11-02T05:12:07.729Z,100.00
2018-11-02T05:14:37.071Z,100.00
2018-11-02T05:17:05.766Z,100.00
2018-11-02T05:19:34.559Z,100.00
2018-11-02T05:22:03.405Z,100.00
2018-11-02T05:24:32.527Z,100.00
2018-11-02T05:27:01.748Z,100.00
2018-11-02T05:29:30.679Z,100.00
2018-11-02T05:31:59.940Z,100.00
2018-11-02T05:34:31.885Z,100.00
2018-11-02T05:37:01.564Z,100.00
2018-11-02T05:39:30.298Z,100.00
2018-11-02T05:41:59.439Z,100.00
2018-11-02T05:44:28.529Z,100.00
2018-11-02T05:46:57.319Z,100.00
2018-11-02T05:49:26.508Z,100.00
2018-11-02T05:51:55.387Z,100.00
2018-11-02T05:54:24.360Z,100.00
2018-11-02T05:56:53.507Z,100.00
2018-11-02T05:59:22.322Z,100.00
2018-11-02T06:01:51.176Z,100.00
2018-11-02T06:04:19.979Z,100.00
2018-11-02T06:06:48.980Z,100.00
2018-11-02T06:09:17.840Z,100.00
2018-11-02T06:11:46.489Z,100.00
2018-11-02T06:14:15.283Z,100.00
2018-11-02T06:16:44.393Z,100.00
2018-11-02T06:19:13.190Z,100.00
2018-11-02T06:21:42.090Z,100.00
2018-11-02T06:24:10.743Z,100.00
2018-11-02T06:26:39.566Z,100.00
2018-11-02T06:29:08.747Z,100.00
2018-11-02T06:31:37.699Z,100.00
2018-11-02T06:34:06.780Z,100.00
2018-11-02T06:36:35.791Z,100.00
2018-11-02T06:39:06.186Z,100.00
2018-11-02T06:41:35.044Z,100.00
2018-11-02T06:44:04.138Z,100.00
2018-11-02T06:46:33.091Z,100.00
2018-11-02T06:49:01.932Z,100.00
2018-11-02T06:51:30.741Z,100.00
2018-11-02T06:53:59.623Z,100.00
2018-11-02T06:56:28.513Z,100.00
2018-11-02T06:58:57.677Z,100.00
2018-11-02T07:01:26.579Z,100.00
2018-11-02T07:03:55.316Z,100.00
2018-11-02T07:06:24.209Z,100.00
2018-11-02T07:08:52.858Z,100.00
2018-11-02T07:11:28.411Z,100.00
2018-11-02T07:13:57.597Z,100.00
2018-11-02T07:16:26.266Z,100.00
2018-11-02T07:18:55.057Z,100.00
2018-11-02T07:21:23.946Z,100.00
2018-11-02T07:23:52.801Z,100.00
2018-11-02T07:26:21.848Z,100.00
2018-11-02T07:28:50.606Z,100.00
2018-11-02T07:31:20.160Z,100.00
2018-11-02T07:33:48.990Z,100.00
2018-11-02T07:36:17.639Z,100.00
2018-11-02T07:38:46.374Z,100.00
2018-11-02T07:41:15.203Z,100.00
2018-11-02T07:43:43.951Z,100.00
2018-11-02T07:46:12.657Z,100.00
2018-11-02T07:48:41.775Z,100.00
2018-11-02T07:51:10.832Z,100.00
2018-11-02T07:53:39.936Z,100.00
2018-11-02T07:56:08.844Z,100.00
2018-11-02T07:58:37.600Z,100.00
2018-11-02T08:01:06.838Z,100.00
2018-11-02T08:03:35.626Z,100.00
2018-11-02T08:06:04.714Z,100.00
2018-11-02T08:08:33.467Z,100.00
2018-11-02T08:11:02.487Z,100.00
2018-11-02T08:13:31.466Z,100.00
2018-11-02T08:16:00.262Z,100.00
2018-11-02T08:18:29.154Z,100.00
2018-11-02T08:20:58.093Z,100.00
2018-11-02T08:23:27.159Z,100.00
2018-11-02T08:25:57.051Z,100.00
2018-11-02T08:28:25.774Z,100.00
2018-11-02T08:30:54.848Z,100.00
2018-11-02T08:33:24.048Z,100.00
2018-11-02T08:35:52.834Z,100.00
2018-11-02T08:38:21.466Z,100.00
2018-11-02T08:40:50.192Z,100.00
2018-11-02T08:43:18.988Z,100.00
2018-11-02T08:45:47.783Z,100.00
2018-11-02T08:48:16.554Z,100.00
2018-11-02T08:50:45.378Z,100.00
2018-11-02T08:53:14.665Z,100.00
2018-11-02T08:55:43.459Z,100.00
2018-11-02T08:58:15.352Z,100.00
2018-11-02T09:00:44.412Z,100.00
2018-11-02T09:03:13.161Z,100.00
2018-11-02T09:05:42.107Z,100.00
2018-11-02T09:08:11.095Z,100.00
2018-11-02T09:10:40.782Z,100.00
2018-11-02T09:13:09.494Z,100.00
2018-11-02T09:15:38.275Z,100.00
2018-11-02T09:18:07.251Z,100.00
2018-11-02T09:20:36.479Z,100.00
2018-11-02T09:23:05.469Z,100.00
2018-11-02T09:25:34.322Z,100.00
2018-11-02T09:28:03.311Z,100.00
2018-11-02T09:30:32.019Z,100.00
2018-11-02T09:33:00.631Z,100.00
2018-11-02T09:35:29.501Z,100.00
2018-11-02T09:37:58.600Z,100.00
2018-11-02T09:40:27.516Z,100.00
2018-11-02T09:42:56.547Z,100.00
2018-11-02T09:45:25.384Z,100.00
2018-11-02T09:47:54.544Z,100.00
2018-11-02T09:50:23.247Z,100.00
2018-11-02T09:52:51.984Z,100.00
2018-11-02T09:55:21.011Z,100.00
2018-11-02T09:57:49.937Z,100.00
2018-11-02T10:00:19.007Z,100.00
2018-11-02T10:02:47.887Z,100.00
2018-11-02T10:05:16.690Z,100.00
2018-11-02T10:07:45.501Z,100.00
2018-11-02T10:10:14.479Z,100.00
2018-11-02T10:12:43.444Z,100.00
2018-11-02T10:15:14.044Z,100.00
2018-11-02T10:17:42.739Z,100.00
2018-11-02T10:20:12.196Z,100.00
2018-11-02T10:22:41.481Z,100.00
2018-11-02T10:25:11.887Z,100.00
2018-11-02T10:27:42.811Z,100.00
2018-11-02T10:30:13.452Z,100.00
2018-11-02T10:32:43.928Z,100.00
2018-11-02T10:35:12.890Z,100.00
2018-11-02T10:37:41.631Z,100.00
2018-11-02T10:40:13.592Z,100.00
2018-11-02T10:42:43.130Z,100.00
2018-11-02T10:45:12.175Z,100.00
2018-11-02T10:47:41.219Z,100.00
2018-11-02T10:50:10.034Z,100.00
2018-11-02T10:52:38.654Z,100.00
2018-11-02T10:55:07.722Z,100.00
2018-11-02T10:57:36.520Z,100.00
2018-11-02T11:00:10.263Z,100.00
2018-11-02T11:02:39.157Z,100.00
2018-11-02T11:05:08.730Z,100.00
2018-11-02T11:07:37.510Z,100.00
2018-11-02T11:10:08.432Z,100.00
2018-11-02T11:12:37.387Z,100.00
2018-11-02T11:15:06.410Z,100.00
2018-11-02T11:17:35.286Z,100.00
2018-11-02T11:20:04.167Z,100.00
2018-11-02T11:22:33.271Z,100.00
2018-11-02T11:25:02.023Z,100.00
2018-11-02T11:27:30.964Z,100.00
2018-11-02T11:29:59.796Z,100.00
2018-11-02T11:32:28.835Z,100.00
2018-11-02T11:34:57.722Z,100.00
2018-11-02T11:37:26.531Z,100.00
2018-11-02T11:39:55.503Z,100.00
2018-11-02T11:42:25.013Z,96.39
2018-11-02T11:44:53.914Z,89.68
2018-11-02T11:47:22.722Z,89.57
2018-11-02T11:49:51.586Z,94.10
2018-11-02T11:52:20.416Z,93.82
2018-11-02T11:55:52.042Z,95.89
2018-11-02T11:58:20.945Z,96.40
2018-11-02T12:00:49.994Z,87.56
2018-11-02T12:03:18.866Z,87.67
2018-11-02T12:05:47.705Z,88.73
2018-11-02T12:08:16.952Z,93.95
2018-11-02T12:10:45.715Z,94.96
2018-11-02T12:13:14.792Z,95.57
2018-11-02T12:15:45.720Z,98.34
2018-11-02T12:18:14.604Z,96.21
2018-11-02T12:20:43.513Z,97.11
2018-11-02T12:23:12.275Z,97.78
2018-11-02T12:25:41.111Z,96.89
2018-11-02T12:28:10.207Z,96.01
2018-11-02T12:30:39.279Z,97.70
2018-11-02T12:33:08.152Z,91.39
2018-11-02T12:35:37.076Z,93.86
2018-11-02T12:38:06.511Z,95.35
2018-11-02T12:40:35.463Z,93.65
2018-11-02T12:43:04.139Z,93.02
2018-11-02T12:45:33.220Z,94.17
2018-11-02T12:48:02.242Z,95.29
2018-11-02T12:50:31.237Z,96.83
2018-11-02T12:53:00.566Z,98.27
2018-11-02T12:55:29.468Z,98.63
2018-11-02T12:57:58.112Z,98.31
2018-11-02T13:00:28.055Z,98.63
2018-11-02T13:02:56.931Z,99.65
2018-11-02T13:05:25.659Z,100.00
2018-11-02T13:07:54.975Z,100.00
2018-11-02T13:10:24.113Z,99.90
2018-11-02T13:12:52.840Z,100.00
2018-11-02T13:15:23.049Z,100.00
2018-11-02T13:17:52.109Z,99.47
2018-11-02T13:20:21.058Z,98.46
2018-11-02T13:22:50.707Z,92.59
2018-11-02T13:25:20.995Z,97.46
2018-11-02T13:27:50.545Z,100.00
2018-11-02T13:30:19.326Z,98.75
2018-11-02T13:32:47.978Z,97.84
2018-11-02T13:35:18.155Z,99.63
2018-11-02T13:37:47.548Z,100.00
2018-11-02T13:40:17.483Z,100.00
2018-11-02T13:42:46.609Z,100.00
2018-11-02T13:45:16.688Z,100.00
2018-11-02T13:47:45.892Z,100.00
2018-11-02T13:50:14.704Z,100.00
2018-11-02T13:52:44.067Z,100.00
2018-11-02T13:55:13.430Z,100.00
2018-11-02T13:57:42.353Z,100.00
2018-11-02T14:00:16.237Z,100.00
2018-11-02T14:02:45.420Z,100.00
2018-11-02T14:05:15.602Z,100.00
2018-11-02T14:07:44.818Z,99.34
2018-11-02T14:10:14.197Z,99.66
2018-11-02T14:12:43.090Z,97.65
2018-11-02T14:15:13.347Z,98.19
2018-11-02T14:17:42.795Z,96.71
2018-11-02T14:20:12.419Z,98.10
2018-11-02T14:22:41.163Z,97.48
2018-11-02T14:25:13.317Z,99.15
2018-11-02T14:27:42.372Z,100.00
2018-11-02T14:30:16.143Z,100.00
2018-11-02T14:32:45.632Z,100.00
2018-11-02T14:35:14.350Z,100.00
2018-11-02T14:37:43.279Z,100.00
2018-11-02T14:40:12.354Z,100.00
2018-11-02T14:42:41.838Z,100.00
2018-11-02T14:45:14.026Z,100.00
2018-11-02T14:47:43.140Z,100.00
2018-11-02T14:50:12.295Z,100.00
2018-11-02T14:52:41.159Z,100.00
2018-11-02T14:55:10.850Z,100.00
2018-11-02T14:57:39.847Z,100.00
2018-11-02T15:00:10.108Z,100.00
2018-11-02T15:02:39.267Z,100.00
2018-11-02T15:05:09.459Z,100.00
2018-11-02T15:07:38.047Z,100.00
2018-11-02T15:10:07.131Z,100.00
2018-11-02T15:12:36.096Z,100.00
2018-11-02T15:15:05.191Z,100.00
2018-11-02T15:17:33.823Z,100.00
2018-11-02T15:20:02.732Z,100.00
2018-11-02T15:22:31.822Z,100.00
2018-11-02T15:25:00.591Z,100.00
2018-11-02T15:27:29.631Z,100.00
2018-11-02T15:29:58.381Z,100.00
2018-11-02T15:32:27.196Z,100.00
2018-11-02T15:34:56.279Z,100.00
2018-11-02T15:37:25.451Z,100.00
2018-11-02T15:39:54.238Z,100.00
2018-11-02T15:42:23.176Z,100.00
2018-11-02T15:44:52.047Z,100.00
2018-11-02T15:47:20.855Z,100.00
2018-11-02T15:49:50.717Z,100.00
2018-11-02T15:52:19.552Z,100.00
2018-11-02T15:54:48.418Z,100.00
2018-11-02T15:57:18.551Z,100.00
2018-11-02T15:59:47.435Z,100.00
2018-11-02T16:02:16.342Z,100.00
2018-11-02T16:04:45.199Z,100.00
2018-11-02T16:07:14.023Z,100.00
2018-11-02T16:09:42.817Z,100.00
2018-11-02T16:12:11.745Z,100.00
2018-11-02T16:14:40.357Z,100.00
2018-11-02T16:17:09.171Z,100.00
2018-11-02T16:19:37.943Z,100.00
2018-11-02T16:22:06.863Z,100.00
2018-11-02T16:24:35.618Z,100.00
2018-11-02T16:27:04.344Z,100.00
2018-11-02T16:29:35.927Z,100.00
2018-11-02T16:32:04.911Z,100.00
2018-11-02T16:34:33.749Z,100.00
2018-11-02T16:37:02.546Z,100.00
2018-11-02T16:39:31.339Z,100.00
2018-11-02T16:42:00.631Z,100.00
2018-11-02T16:44:29.398Z,100.00
2018-11-02T16:46:58.421Z,100.00
2018-11-02T16:49:27.556Z,100.00
2018-11-02T16:51:56.616Z,100.00
2018-11-02T16:54:25.411Z,100.00
2018-11-02T16:56:54.391Z,100.00
2018-11-02T16:59:23.211Z,100.00
2018-11-02T17:01:51.937Z,100.00
2018-11-02T17:04:20.720Z,100.00
2018-11-02T17:06:49.735Z,100.00
2018-11-02T17:09:18.831Z,100.00
2018-11-02T17:11:47.878Z,100.00
2018-11-02T17:14:16.418Z,100.00
2018-11-02T17:16:45.300Z,100.00
2018-11-02T17:19:14.455Z,100.00
2018-11-02T17:21:46.256Z,100.00
2018-11-02T17:24:15.737Z,100.00
2018-11-02T17:26:44.549Z,100.00
2018-11-02T17:29:14.550Z,100.00
2018-11-02T17:31:43.980Z,100.00
2018-11-02T17:34:13.077Z,100.00
2018-11-02T17:36:42.094Z,100.00
2018-11-02T17:39:12.587Z,100.00
2018-11-02T17:41:41.399Z,100.00
2018-11-02T17:44:10.689Z,100.00
2018-11-02T17:46:40.576Z,100.00
2018-11-02T17:49:09.460Z,100.00
2018-11-02T17:51:38.839Z,100.00
2018-11-02T17:54:07.650Z,100.00
2018-11-02T17:56:36.739Z,100.00
2018-11-02T17:59:05.798Z,100.00
2018-11-02T18:01:34.454Z,100.00
2018-11-02T18:04:03.237Z,100.00
2018-11-02T18:06:32.300Z,100.00
2018-11-02T18:09:01.626Z,100.00
2018-11-02T18:11:30.667Z,100.00
2018-11-02T18:13:59.596Z,100.00
2018-11-02T18:16:29.063Z,100.00
2018-11-02T18:18:57.967Z,100.00
2018-11-02T18:21:26.851Z,100.00
2018-11-02T18:23:55.776Z,100.00
2018-11-02T18:26:24.780Z,100.00
2018-11-02T18:28:53.567Z,100.00
2018-11-02T18:31:22.408Z,100.00
2018-11-02T18:33:51.357Z,100.00
2018-11-02T18:36:20.992Z,100.00
2018-11-02T18:38:50.570Z,100.00
2018-11-02T18:41:20.183Z,100.00
2018-11-02T18:43:49.727Z,100.00
2018-11-02T18:46:19.305Z,100.00
2018-11-02T18:48:48.797Z,100.00
2018-11-02T18:51:18.314Z,100.00
2018-11-02T18:53:48.248Z,100.00
2018-11-02T18:56:17.751Z,100.00
2018-11-02T18:58:47.445Z,100.00
2018-11-02T19:01:17.186Z,100.00
2018-11-02T19:03:46.604Z,100.00
2018-11-02T19:06:16.226Z,100.00
2018-11-02T19:08:46.238Z,100.00
2018-11-02T19:11:15.909Z,100.00
2018-11-02T19:13:46.231Z,100.00
2018-11-02T19:16:15.941Z,100.00
2018-11-02T19:18:46.278Z,100.00
2018-11-02T19:21:15.888Z,100.00
2018-11-02T19:23:45.683Z,100.00
2018-11-02T19:26:15.802Z,100.00
2018-11-02T19:28:45.596Z,100.00
2018-11-02T19:31:15.173Z,100.00
2018-11-02T19:33:44.844Z,100.00
2018-11-02T19:36:14.637Z,100.00
2018-11-02T19:38:45.414Z,100.00
2018-11-02T19:41:15.175Z,100.00
2018-11-02T19:43:44.652Z,100.00
2018-11-02T19:46:14.192Z,100.00
2018-11-02T19:48:43.978Z,100.00
2018-11-02T19:51:13.328Z,100.00
2018-11-02T19:53:43.929Z,100.00
2018-11-02T19:56:13.435Z,100.00
2018-11-02T19:58:42.903Z,100.00
2018-11-02T20:01:12.441Z,100.00
2018-11-02T20:03:41.933Z,100.00
2018-11-02T20:06:11.983Z,100.00
2018-11-02T20:08:41.440Z,100.00
2018-11-02T20:11:10.941Z,100.00
2018-11-02T20:14:57.420Z,100.00
2018-11-02T20:17:32.325Z,100.00
2018-11-02T20:20:05.467Z,100.00
2018-11-02T20:22:38.170Z,100.00
2018-11-02T20:25:10.085Z,100.00
2018-11-02T20:27:42.884Z,100.00
2018-11-02T20:30:19.027Z,100.00
2018-11-02T20:32:53.857Z,100.00
2018-11-02T20:35:27.010Z,100.00
2018-11-02T20:37:59.551Z,100.00
2018-11-02T20:40:29.701Z,100.00
2018-11-02T20:42:58.581Z,100.00
2018-11-02T20:45:28.605Z,100.00
2018-11-02T20:47:57.767Z,100.00
2018-11-02T20:50:28.126Z,100.00
2018-11-02T20:52:57.276Z,100.00
2018-11-02T20:55:27.344Z,100.00
2018-11-02T20:57:56.644Z,100.00
2018-11-02T21:00:25.997Z,100.00
2018-11-02T21:02:55.013Z,100.00
2018-11-02T21:05:23.965Z,100.00
2018-11-02T21:07:54.587Z,100.00
2018-11-02T21:10:24.373Z,100.00
2018-11-02T21:12:55.277Z,100.00
2018-11-02T21:15:26.918Z,100.00
2018-11-02T21:17:57.187Z,100.00
2018-11-02T21:20:27.131Z,100.00
2018-11-02T21:22:55.768Z,100.00
2018-11-02T21:25:27.812Z,100.00
2018-11-02T21:28:00.097Z,100.00
2018-11-02T21:30:32.568Z,100.00
2018-11-02T21:33:04.929Z,100.00
2018-11-02T21:35:33.976Z,100.00
2018-11-02T21:38:02.955Z,100.00
2018-11-02T21:40:31.731Z,100.00
2018-11-02T21:43:00.638Z,100.00
2018-11-02T21:45:29.583Z,100.00
2018-11-02T21:48:02.301Z,100.00
2018-11-02T21:50:31.402Z,100.00
2018-11-02T21:53:00.267Z,100.00
2018-11-02T21:55:29.376Z,100.00
2018-11-02T21:57:58.470Z,100.00
2018-11-02T22:00:27.356Z,100.00
2018-11-02T22:02:56.110Z,100.00
2018-11-02T22:05:24.934Z,100.00
2018-11-02T22:07:53.834Z,100.00
2018-11-02T22:10:22.778Z,100.00
2018-11-02T22:12:53.450Z,100.00
2018-11-02T22:15:27.768Z,100.00
2018-11-02T22:17:57.375Z,100.00
2018-11-02T22:20:26.208Z,100.00
2018-11-02T22:22:55.171Z,100.00
2018-11-02T22:25:24.054Z,100.00
2018-11-02T22:27:52.794Z,100.00
2018-11-02T22:30:21.555Z,100.00
2018-11-02T22:32:50.648Z,100.00
2018-11-02T22:35:19.704Z,100.00
2018-11-02T22:37:48.428Z,100.00
2018-11-02T22:40:17.119Z,100.00
2018-11-02T22:42:46.068Z,100.00
2018-11-02T22:45:15.708Z,100.00
2018-11-02T22:47:49.605Z,100.00
2018-11-02T22:50:18.675Z,100.00
2018-11-02T22:52:47.608Z,100.00
2018-11-02T22:55:17.813Z,100.00
2018-11-02T22:57:46.593Z,100.00
2018-11-02T23:00:17.411Z,100.00
2018-11-02T23:02:46.867Z,100.00
2018-11-02T23:05:15.652Z,100.00
2018-11-02T23:07:45.089Z,100.00
2018-11-02T23:10:16.799Z,100.00
2018-11-02T23:12:45.709Z,100.00
2018-11-02T23:15:14.683Z,100.00
2018-11-02T23:17:46.453Z,100.00
2018-11-02T23:20:15.663Z,100.00
2018-11-02T23:22:46.290Z,100.00
2018-11-02T23:25:16.106Z,100.00
2018-11-02T23:27:45.511Z,100.00
2018-11-02T23:30:14.336Z,100.00
2018-11-02T23:32:45.988Z,100.00
2018-11-02T23:35:17.042Z,100.00
2018-11-02T23:37:47.866Z,100.00
2018-11-02T23:40:20.684Z,100.00
2018-11-02T23:42:49.903Z,100.00
2018-11-02T23:45:19.788Z,100.00
2018-11-02T23:47:54.844Z,100.00
2018-11-02T23:50:25.068Z,100.00
2018-11-02T23:52:54.156Z,100.00
2018-11-02T23:55:23.644Z,100.00
2018-11-02T23:57:54.187Z,100.00
